Mc Clellan-Palomar Airport
KCRQ : rendu visible

Aérodrome :











RETROUVEZ-NOUS SUR...

 
LOGIN :

S'inscrire | Disclaimer

   EN    FR    IT 

 









Légende :    VFR   VFR Marginal   IFR   IFR Intensif   IFR Très Intensif
Visi : 
Plafond : 
>= 8 km
>= 3000ft
5 à 8 km
1000 à 3000 ft
1500m à 5 km
500 à 1000 ft
800 à 1500m
200 à 500 ft
< 800m
< 200 ft
Symboles :   Orages  Brouillard  Fortes neiges  Fortes précipitations  Vent > 20 kt






- Altitude de l'aérodrome : 331 ft


KCRQ - Mc Clellan-Palomar

DERNIER METAR :
  • 181105Z AUTO 00000KT 10SM SCT029 16/13 A2986 RMK AO2 T01610128

METARs EXPIRÉS :
  • 181053Z AUTO 08003KT 10SM FEW017 BKN028 16/13 A2986 RMK AO2 SLP109 T01610128
  • 181010Z AUTO 00000KT 10SM FEW025 17/13 A2985 RMK AO2 T01670128
  • 180953Z AUTO 00000KT 10SM BKN024 17/13 A2985 RMK AO2 SLP105 T01720128
  • 180853Z AUTO 18003KT 10SM OVC019 18/13 A2984 RMK AO2 SLP103 T01780128 51009

TAF KCRQ
Valide du 18 à 07h jusqu'au 19 à 06h UTC


180636Z 1807/1906 17005KT P6SM BKN020
FM181400 VRB04KT P6SM SCT025
FM182100 27008KT P6SM FEW020
FM190000 VRB04KT P6SM FEW020



MET'MAP, la Météo Aéronautique d'un coup d'oeil ! - Copyright ORBIFLY Décembre 2007 - Disclaimer

ORBIFLY MET'MAP TEAM :

Programmation & Développement : Alexandra Zaïnal
Conception & Développement : Baudouin d'Aumeries
Co-Programmation & Développement : Marc-Olivier Méhu
Soutien technique & logistique : Manuel Goepfert

Contact : metmap@orbifly.com




SOURCES & CREDITS :

   NOAA       Earth
Advisory